sensor_id;sensor_type;location;lat;lon;timestamp;pressure;altitude;pressure_sealevel;temperature;humidity
26563;BME280;14217;50.986;5.826;2024-01-30T00:04:16;102059.53;;;18.42;45.73
26563;BME280;14217;50.986;5.826;2024-01-30T00:09:19;102050.69;;;18.41;45.72
26563;BME280;14217;50.986;5.826;2024-01-30T00:14:21;102051.44;;;18.46;45.81
26563;BME280;14217;50.986;5.826;2024-01-30T00:19:23;102040.75;;;18.49;45.34
26563;BME280;14217;50.986;5.826;2024-01-30T00:24:26;102038.09;;;18.49;45.67
26563;BME280;14217;50.986;5.826;2024-01-30T00:29:28;102046.97;;;18.48;45.28
26563;BME280;14217;50.986;5.826;2024-01-30T00:34:32;102036.56;;;18.41;45.74
26563;BME280;14217;50.986;5.826;2024-01-30T00:39:35;102032.94;;;18.43;45.65
26563;BME280;14217;50.986;5.826;2024-01-30T00:44:37;102039.97;;;18.46;45.42
26563;BME280;14217;50.986;5.826;2024-01-30T00:49:40;102036.19;;;18.55;45.06
26563;BME280;14217;50.986;5.826;2024-01-30T00:54:42;102030.81;;;18.58;44.99
26563;BME280;14217;50.986;5.826;2024-01-30T00:59:44;102030.03;;;18.54;45.06
26563;BME280;14217;50.986;5.826;2024-01-30T01:04:46;102025.44;;;18.59;44.90
26563;BME280;14217;50.986;5.826;2024-01-30T01:09:48;102023.75;;;18.57;45.26
26563;BME280;14217;50.986;5.826;2024-01-30T01:14:51;102031.66;;;18.60;45.04
26563;BME280;14217;50.986;5.826;2024-01-30T01:19:53;102024.59;;;18.59;45.16
26563;BME280;14217;50.986;5.826;2024-01-30T01:24:55;102026.41;;;18.57;44.85
26563;BME280;14217;50.986;5.826;2024-01-30T01:29:57;102025.50;;;18.58;44.99
26563;BME280;14217;50.986;5.826;2024-01-30T01:34:59;102017.59;;;18.56;44.83
26563;BME280;14217;50.986;5.826;2024-01-30T01:40:01;102014.97;;;18.55;45.24
26563;BME280;14217;50.986;5.826;2024-01-30T01:45:04;102004.28;;;18.58;44.90
26563;BME280;14217;50.986;5.826;2024-01-30T01:50:07;102010.56;;;18.55;44.98
26563;BME280;14217;50.986;5.826;2024-01-30T01:55:11;102010.47;;;18.57;45.02
26563;BME280;14217;50.986;5.826;2024-01-30T02:00:13;101998.13;;;18.56;44.99
26563;BME280;14217;50.986;5.826;2024-01-30T02:05:16;101997.22;;;18.57;44.87
26563;BME280;14217;50.986;5.826;2024-01-30T02:10:18;101998.06;;;18.57;44.97
26563;BME280;14217;50.986;5.826;2024-01-30T02:15:20;101989.22;;;18.58;45.05
26563;BME280;14217;50.986;5.826;2024-01-30T02:20:24;101984.78;;;18.59;44.78
26563;BME280;14217;50.986;5.826;2024-01-30T02:25:31;101987.69;;;18.49;45.01
26563;BME280;14217;50.986;5.826;2024-01-30T02:30:33;101983.03;;;18.58;44.95
26563;BME280;14217;50.986;5.826;2024-01-30T02:35:35;101978.59;;;18.58;44.87
26563;BME280;14217;50.986;5.826;2024-01-30T02:40:37;101983.03;;;18.58;44.93
26563;BME280;14217;50.986;5.826;2024-01-30T02:45:39;101974.25;;;18.56;44.97
26563;BME280;14217;50.986;5.826;2024-01-30T02:50:41;101976.03;;;18.55;45.07
26563;BME280;14217;50.986;5.826;2024-01-30T02:55:43;101974.28;;;18.54;45.03
26563;BME280;14217;50.986;5.826;2024-01-30T03:00:45;101964.47;;;18.58;44.71
26563;BME280;14217;50.986;5.826;2024-01-30T03:05:48;101965.34;;;18.57;44.85
26563;BME280;14217;50.986;5.826;2024-01-30T03:10:50;101966.22;;;18.57;44.86
26563;BME280;14217;50.986;5.826;2024-01-30T03:15:52;101968.84;;;18.59;44.98
26563;BME280;14217;50.986;5.826;2024-01-30T03:20:54;101962.63;;;18.60;44.81
26563;BME280;14217;50.986;5.826;2024-01-30T03:25:56;101971.50;;;18.59;44.74
26563;BME280;14217;50.986;5.826;2024-01-30T03:30:58;101961.81;;;18.58;44.65
26563;BME280;14217;50.986;5.826;2024-01-30T03:36:03;101951.13;;;18.59;44.95
26563;BME280;14217;50.986;5.826;2024-01-30T03:41:08;101945.72;;;18.64;44.52
26563;BME280;14217;50.986;5.826;2024-01-30T03:46:12;101950.25;;;18.59;44.80
26563;BME280;14217;50.986;5.826;2024-01-30T03:51:14;101945.88;;;18.58;44.65
26563;BME280;14217;50.986;5.826;2024-01-30T03:56:17;101950.25;;;18.59;44.80
26563;BME280;14217;50.986;5.826;2024-01-30T04:01:20;101948.38;;;18.64;44.54
26563;BME280;14217;50.986;5.826;2024-01-30T04:06:22;101949.31;;;18.61;44.60
26563;BME280;14217;50.986;5.826;2024-01-30T04:11:24;101938.75;;;18.60;44.75
26563;BME280;14217;50.986;5.826;2024-01-30T04:16:27;101942.22;;;18.62;45.10
26563;BME280;14217;50.986;5.826;2024-01-30T04:21:29;101947.53;;;18.62;45.20
26563;BME280;14217;50.986;5.826;2024-01-30T04:26:31;101936.94;;;18.62;45.08
26563;BME280;14217;50.986;5.826;2024-01-30T04:31:36;101933.38;;;18.61;45.16
26563;BME280;14217;50.986;5.826;2024-01-30T04:36:38;101942.25;;;18.60;45.25
26563;BME280;14217;50.986;5.826;2024-01-30T04:41:40;101938.88;;;18.55;45.38
26563;BME280;14217;50.986;5.826;2024-01-30T04:46:42;101937.81;;;18.61;45.03
26563;BME280;14217;50.986;5.826;2024-01-30T04:51:44;101935.16;;;18.61;44.86
26563;BME280;14217;50.986;5.826;2024-01-30T04:56:46;101930.66;;;18.64;44.93
26563;BME280;14217;50.986;5.826;2024-01-30T05:01:48;101925.41;;;18.61;45.06
26563;BME280;14217;50.986;5.826;2024-01-30T05:06:50;101929.84;;;18.61;44.98
26563;BME280;14217;50.986;5.826;2024-01-30T05:11:53;101927.16;;;18.62;44.92
26563;BME280;14217;50.986;5.826;2024-01-30T05:16:55;101930.72;;;18.61;44.96
26563;BME280;14217;50.986;5.826;2024-01-30T05:21:57;101929.00;;;18.60;44.76
26563;BME280;14217;50.986;5.826;2024-01-30T05:26:59;101928.03;;;18.63;45.04
26563;BME280;14217;50.986;5.826;2024-01-30T05:32:01;101928.78;;;18.68;44.92
26563;BME280;14217;50.986;5.826;2024-01-30T05:37:03;101928.97;;;18.62;44.81
26563;BME280;14217;50.986;5.826;2024-01-30T05:42:06;101917.34;;;18.66;44.59
26563;BME280;14217;50.986;5.826;2024-01-30T05:47:08;101918.28;;;18.63;44.75
26563;BME280;14217;50.986;5.826;2024-01-30T05:52:10;101913.88;;;18.64;44.80
26563;BME280;14217;50.986;5.826;2024-01-30T05:57:12;101918.34;;;18.62;45.09
26563;BME280;14217;50.986;5.826;2024-01-30T06:02:15;101929.00;;;18.60;44.81
26563;BME280;14217;50.986;5.826;2024-01-30T06:07:17;101919.09;;;18.65;44.95
26563;BME280;14217;50.986;5.826;2024-01-30T06:12:19;101921.81;;;18.64;44.83
26563;BME280;14217;50.986;5.826;2024-01-30T06:17:22;101921.94;;;18.59;44.76
26563;BME280;14217;50.986;5.826;2024-01-30T06:22:24;101917.38;;;18.64;44.58
26563;BME280;14217;50.986;5.826;2024-01-30T06:27:26;101920.94;;;18.63;44.86
26563;BME280;14217;50.986;5.826;2024-01-30T06:32:28;101920.84;;;18.68;44.66
26563;BME280;14217;50.986;5.826;2024-01-30T06:37:30;101922.66;;;18.66;44.81
26563;BME280;14217;50.986;5.826;2024-01-30T06:42:32;101918.19;;;18.68;44.88
26563;BME280;14217;50.986;5.826;2024-01-30T06:47:34;101924.41;;;18.65;44.58
26563;BME280;14217;50.986;5.826;2024-01-30T06:52:36;101925.34;;;18.64;44.79
26563;BME280;14217;50.986;5.826;2024-01-30T06:57:38;101927.00;;;18.68;44.83
26563;BME280;14217;50.986;5.826;2024-01-30T07:02:41;101928.91;;;18.63;44.77
26563;BME280;14217;50.986;5.826;2024-01-30T07:07:43;101940.34;;;18.65;44.74
26563;BME280;14217;50.986;5.826;2024-01-30T07:12:45;101943.94;;;18.64;44.77
26563;BME280;14217;50.986;5.826;2024-01-30T07:17:47;101947.44;;;18.65;44.97
26563;BME280;14217;50.986;5.826;2024-01-30T07:22:49;101948.28;;;18.67;44.74
26563;BME280;14217;50.986;5.826;2024-01-30T07:27:52;101948.31;;;18.65;44.69
26563;BME280;14217;50.986;5.826;2024-01-30T07:32:54;101963.38;;;18.65;44.99
26563;BME280;14217;50.986;5.826;2024-01-30T07:37:56;101978.44;;;18.64;44.96
26563;BME280;14217;50.986;5.826;2024-01-30T07:42:59;101972.19;;;18.65;44.73
26563;BME280;14217;50.986;5.826;2024-01-30T07:48:01;101969.53;;;18.65;44.83
26563;BME280;14217;50.986;5.826;2024-01-30T07:53:03;101991.69;;;18.66;44.66
26563;BME280;14217;50.986;5.826;2024-01-30T07:58:05;102009.34;;;18.67;44.99
26563;BME280;14217;50.986;5.826;2024-01-30T08:03:07;102002.28;;;18.66;44.77
26563;BME280;14217;50.986;5.826;2024-01-30T08:08:09;102013.94;;;18.60;45.16
26563;BME280;14217;50.986;5.826;2024-01-30T08:13:11;102032.03;;;18.44;45.50
26563;BME280;14217;50.986;5.826;2024-01-30T08:18:13;102038.09;;;18.49;46.24
26563;BME280;14217;50.986;5.826;2024-01-30T08:23:15;102037.81;;;18.60;46.38
26563;BME280;14217;50.986;5.826;2024-01-30T08:28:17;102040.38;;;18.63;46.03
26563;BME280;14217;50.986;5.826;2024-01-30T08:33:22;102037.81;;;18.60;45.91
26563;BME280;14217;50.986;5.826;2024-01-30T08:38:24;102037.81;;;18.60;45.50
26563;BME280;14217;50.986;5.826;2024-01-30T08:43:26;102040.63;;;18.54;45.75
26563;BME280;14217;50.986;5.826;2024-01-30T08:48:28;102042.63;;;18.46;46.22
26563;BME280;14217;50.986;5.826;2024-01-30T08:53:30;102038.84;;;18.55;45.94
26563;BME280;14217;50.986;5.826;2024-01-30T08:58:32;102045.09;;;18.54;46.41
26563;BME280;14217;50.986;5.826;2024-01-30T09:03:34;102045.41;;;18.40;46.28
26563;BME280;14217;50.986;5.826;2024-01-30T09:08:37;102053.09;;;18.51;45.90
26563;BME280;14217;50.986;5.826;2024-01-30T09:13:39;102058.50;;;18.47;46.08
26563;BME280;14217;50.986;5.826;2024-01-30T09:18:41;102065.28;;;18.59;45.94
26563;BME280;14217;50.986;5.826;2024-01-30T09:23:44;102059.03;;;18.62;45.43
26563;BME280;14217;50.986;5.826;2024-01-30T09:28:46;102053.72;;;18.62;45.54
26563;BME280;14217;50.986;5.826;2024-01-30T09:33:48;102063.34;;;18.66;45.35
26563;BME280;14217;50.986;5.826;2024-01-30T09:38:51;102074.13;;;18.60;45.11
26563;BME280;14217;50.986;5.826;2024-01-30T09:43:53;102075.84;;;18.61;45.03
26563;BME280;14217;50.986;5.826;2024-01-30T09:48:57;102076.78;;;18.60;45.11
26563;BME280;14217;50.986;5.826;2024-01-30T09:54:01;102086.50;;;18.59;45.19
26563;BME280;14217;50.986;5.826;2024-01-30T09:59:04;102090.91;;;18.60;45.00
26563;BME280;14217;50.986;5.826;2024-01-30T10:04:07;102082.00;;;18.63;44.93
26563;BME280;14217;50.986;5.826;2024-01-30T10:09:09;102082.94;;;18.62;45.15
26563;BME280;14217;50.986;5.826;2024-01-30T10:14:11;102095.25;;;18.64;44.79
26563;BME280;14217;50.986;5.826;2024-01-30T10:19:13;102098.91;;;18.59;44.82
26563;BME280;14217;50.986;5.826;2024-01-30T10:24:15;102096.28;;;18.57;45.10
26563;BME280;14217;50.986;5.826;2024-01-30T10:29:19;102097.88;;;18.66;44.72
26563;BME280;14217;50.986;5.826;2024-01-30T10:34:21;102096.09;;;18.65;44.91
26563;BME280;14217;50.986;5.826;2024-01-30T10:39:23;102097.94;;;18.63;44.94
26563;BME280;14217;50.986;5.826;2024-01-30T10:44:28;102083.75;;;18.64;44.92
26563;BME280;14217;50.986;5.826;2024-01-30T10:49:32;102095.25;;;18.64;44.58
26563;BME280;14217;50.986;5.826;2024-01-30T10:54:36;102097.06;;;18.62;44.77
26563;BME280;14217;50.986;5.826;2024-01-30T10:59:39;102102.38;;;18.62;44.88
26563;BME280;14217;50.986;5.826;2024-01-30T11:04:42;102115.69;;;18.61;44.87
26563;BME280;14217;50.986;5.826;2024-01-30T11:09:49;102122.25;;;18.44;46.25
26563;BME280;14217;50.986;5.826;2024-01-30T11:15:08;102114.16;;;18.51;46.04
26563;BME280;14217;50.986;5.826;2024-01-30T11:20:27;102117.50;;;18.59;45.64
26563;BME280;14217;50.986;5.826;2024-01-30T11:25:31;102121.00;;;18.61;45.48
26563;BME280;14217;50.986;5.826;2024-01-30T11:30:33;102112.91;;;18.65;45.50
26563;BME280;14217;50.986;5.826;2024-01-30T11:35:43;102116.72;;;18.55;45.39
26563;BME280;14217;50.986;5.826;2024-01-30T11:40:47;102116.63;;;18.58;45.53
26563;BME280;14217;50.986;5.826;2024-01-30T11:45:50;102110.47;;;18.58;45.33
26563;BME280;14217;50.986;5.826;2024-01-30T11:50:52;102106.03;;;18.57;45.34
26563;BME280;14217;50.986;5.826;2024-01-30T11:55:54;102112.28;;;18.56;45.52
26563;BME280;14217;50.986;5.826;2024-01-30T12:00:56;102107.97;;;18.50;45.62
26563;BME280;14217;50.986;5.826;2024-01-30T12:05:59;102106.00;;;18.58;45.29
26563;BME280;14217;50.986;5.826;2024-01-30T12:11:02;102110.50;;;18.56;45.49
26563;BME280;14217;50.986;5.826;2024-01-30T12:16:07;102115.78;;;18.58;45.35
26563;BME280;14217;50.986;5.826;2024-01-30T12:21:09;102106.88;;;18.59;45.48
26563;BME280;14217;50.986;5.826;2024-01-30T12:26:12;102115.72;;;18.59;45.20
26563;BME280;14217;50.986;5.826;2024-01-30T12:31:14;102116.59;;;18.60;45.09
26563;BME280;14217;50.986;5.826;2024-01-30T12:36:16;102121.06;;;18.58;45.39
26563;BME280;14217;50.986;5.826;2024-01-30T12:41:19;102119.25;;;18.60;45.13
26563;BME280;14217;50.986;5.826;2024-01-30T12:46:27;102128.13;;;18.59;45.19
26563;BME280;14217;50.986;5.826;2024-01-30T12:51:29;102132.56;;;18.58;45.01
26563;BME280;14217;50.986;5.826;2024-01-30T12:56:31;102131.69;;;18.58;45.04
26563;BME280;14217;50.986;5.826;2024-01-30T13:01:33;102147.63;;;18.58;45.19
26563;BME280;14217;50.986;5.826;2024-01-30T13:06:35;102138.72;;;18.59;45.21
26563;BME280;14217;50.986;5.826;2024-01-30T13:11:37;102134.28;;;18.59;44.92
26563;BME280;14217;50.986;5.826;2024-01-30T13:16:39;102150.19;;;18.61;44.92
26563;BME280;14217;50.986;5.826;2024-01-30T13:21:41;102144.88;;;18.61;44.89
26563;BME280;14217;50.986;5.826;2024-01-30T13:26:45;102147.56;;;18.59;45.23
26563;BME280;14217;50.986;5.826;2024-01-30T13:31:47;102141.38;;;18.60;45.14
26563;BME280;14217;50.986;5.826;2024-01-30T13:36:49;102152.84;;;18.61;45.16
26563;BME280;14217;50.986;5.826;2024-01-30T13:41:51;102170.53;;;18.62;44.97
26563;BME280;14217;50.986;5.826;2024-01-30T13:46:53;102173.28;;;18.57;45.26
26563;BME280;14217;50.986;5.826;2024-01-30T13:51:56;102165.28;;;18.59;44.95
26563;BME280;14217;50.986;5.826;2024-01-30T13:57:01;102179.47;;;18.58;45.24
26563;BME280;14217;50.986;5.826;2024-01-30T14:02:03;102176.00;;;18.56;44.96
26563;BME280;14217;50.986;5.826;2024-01-30T14:07:05;102173.34;;;18.54;45.72
26563;BME280;14217;50.986;5.826;2024-01-30T14:12:08;102177.66;;;18.60;45.71
26563;BME280;14217;50.986;5.826;2024-01-30T14:17:10;102191.06;;;18.55;46.01
26563;BME280;14217;50.986;5.826;2024-01-30T14:22:12;102191.06;;;18.55;45.77
26563;BME280;14217;50.986;5.826;2024-01-30T14:27:14;102196.28;;;18.57;45.63
26563;BME280;14217;50.986;5.826;2024-01-30T14:32:16;102206.06;;;18.56;46.00
26563;BME280;14217;50.986;5.826;2024-01-30T14:37:19;102227.25;;;18.58;45.67
26563;BME280;14217;50.986;5.826;2024-01-30T14:42:21;102228.16;;;18.57;45.87
26563;BME280;14217;50.986;5.826;2024-01-30T14:47:23;102233.34;;;18.61;45.97
26563;BME280;14217;50.986;5.826;2024-01-30T14:52:25;102238.75;;;18.58;45.81
26563;BME280;14217;50.986;5.826;2024-01-30T14:57:28;102235.13;;;18.62;45.55
26563;BME280;14217;50.986;5.826;2024-01-30T15:02:31;102246.72;;;18.58;45.49
26563;BME280;14217;50.986;5.826;2024-01-30T15:07:33;102255.50;;;18.62;45.70
26563;BME280;14217;50.986;5.826;2024-01-30T15:12:41;102268.84;;;18.57;45.51
26563;BME280;14217;50.986;5.826;2024-01-30T15:17:43;102272.41;;;18.56;45.67
26563;BME280;14217;50.986;5.826;2024-01-30T15:22:45;102267.97;;;18.57;45.54
26563;BME280;14217;50.986;5.826;2024-01-30T15:27:47;102277.72;;;18.56;45.33
26563;BME280;14217;50.986;5.826;2024-01-30T15:32:50;102290.13;;;18.56;45.24
26563;BME280;14217;50.986;5.826;2024-01-30T15:37:53;102289.25;;;18.55;45.29
26563;BME280;14217;50.986;5.826;2024-01-30T15:42:55;102304.28;;;18.55;45.19
26563;BME280;14217;50.986;5.826;2024-01-30T15:47:57;102302.47;;;18.57;45.26
26563;BME280;14217;50.986;5.826;2024-01-30T15:53:00;102308.81;;;18.51;45.31
26563;BME280;14217;50.986;5.826;2024-01-30T15:58:03;102311.41;;;18.53;45.69
26563;BME280;14217;50.986;5.826;2024-01-30T16:03:05;102323.63;;;18.61;45.55
26563;BME280;14217;50.986;5.826;2024-01-30T16:08:08;102348.41;;;18.62;45.39
26563;BME280;14217;50.986;5.826;2024-01-30T16:13:09;102346.63;;;18.61;45.55
26563;BME280;14217;50.986;5.826;2024-01-30T16:18:12;102352.13;;;18.53;45.49
26563;BME280;14217;50.986;5.826;2024-01-30T16:23:14;102357.38;;;18.55;45.16
26563;BME280;14217;50.986;5.826;2024-01-30T16:28:16;102368.94;;;18.54;45.32
26563;BME280;14217;50.986;5.826;2024-01-30T16:33:19;102382.97;;;18.59;45.16
26563;BME280;14217;50.986;5.826;2024-01-30T16:38:22;102381.25;;;18.56;45.10
26563;BME280;14217;50.986;5.826;2024-01-30T16:43:24;102393.59;;;18.57;44.83
26563;BME280;14217;50.986;5.826;2024-01-30T16:48:28;102403.13;;;18.69;44.74
26563;BME280;14217;50.986;5.826;2024-01-30T16:53:31;102408.44;;;18.69;44.75
26563;BME280;14217;50.986;5.826;2024-01-30T16:58:33;102409.28;;;18.69;44.69
26563;BME280;14217;50.986;5.826;2024-01-30T17:03:35;102416.50;;;18.64;44.58
26563;BME280;14217;50.986;5.826;2024-01-30T17:08:37;102432.31;;;18.71;44.65
26563;BME280;14217;50.986;5.826;2024-01-30T17:13:39;102440.69;;;18.49;44.85
26563;BME280;14217;50.986;5.826;2024-01-30T17:18:41;102448.34;;;18.66;44.65
26563;BME280;14217;50.986;5.826;2024-01-30T17:23:43;102448.34;;;18.66;44.79
26563;BME280;14217;50.986;5.826;2024-01-30T17:28:45;102454.50;;;18.66;45.00
26563;BME280;14217;50.986;5.826;2024-01-30T17:33:47;102462.50;;;18.65;44.96
26563;BME280;14217;50.986;5.826;2024-01-30T17:38:50;102469.63;;;18.63;44.88
26563;BME280;14217;50.986;5.826;2024-01-30T17:43:52;102481.19;;;18.59;44.88
26563;BME280;14217;50.986;5.826;2024-01-30T17:48:55;102483.09;;;18.52;45.11
26563;BME280;14217;50.986;5.826;2024-01-30T17:53:57;102479.47;;;18.56;44.83
26563;BME280;14217;50.986;5.826;2024-01-30T17:58:59;102491.81;;;18.59;45.02
26563;BME280;14217;50.986;5.826;2024-01-30T18:04:01;102507.63;;;18.65;44.74
26563;BME280;14217;50.986;5.826;2024-01-30T18:09:03;102511.22;;;18.62;44.98
26563;BME280;14217;50.986;5.826;2024-01-30T18:14:06;102512.09;;;18.63;44.96
26563;BME280;14217;50.986;5.826;2024-01-30T18:19:08;102519.19;;;18.64;44.66
26563;BME280;14217;50.986;5.826;2024-01-30T18:24:10;102517.38;;;18.64;44.71
26563;BME280;14217;50.986;5.826;2024-01-30T18:29:12;102520.03;;;18.64;44.65
26563;BME280;14217;50.986;5.826;2024-01-30T18:34:14;102536.84;;;18.63;44.45
26563;BME280;14217;50.986;5.826;2024-01-30T18:39:16;102541.19;;;18.69;44.03
26563;BME280;14217;50.986;5.826;2024-01-30T18:44:19;102550.00;;;18.71;44.03
26563;BME280;14217;50.986;5.826;2024-01-30T18:49:21;102557.19;;;18.66;44.19
26563;BME280;14217;50.986;5.826;2024-01-30T18:54:23;102547.41;;;18.68;44.60
26563;BME280;14217;50.986;5.826;2024-01-30T18:59:30;102563.38;;;18.65;44.55
26563;BME280;14217;50.986;5.826;2024-01-30T19:04:32;102559.75;;;18.72;44.29
26563;BME280;14217;50.986;5.826;2024-01-30T19:09:34;102562.41;;;18.71;44.75
26563;BME280;14217;50.986;5.826;2024-01-30T19:14:37;102555.31;;;18.71;44.95
26563;BME280;14217;50.986;5.826;2024-01-30T19:19:39;102556.16;;;18.73;44.88
26563;BME280;14217;50.986;5.826;2024-01-30T19:24:42;102575.59;;;18.77;44.54
26563;BME280;14217;50.986;5.826;2024-01-30T19:29:44;102577.47;;;18.70;44.79
26563;BME280;14217;50.986;5.826;2024-01-30T19:34:46;102570.38;;;18.72;44.75
26563;BME280;14217;50.986;5.826;2024-01-30T19:39:48;102586.28;;;18.72;44.80
26563;BME280;14217;50.986;5.826;2024-01-30T19:44:51;102577.41;;;18.73;44.77
26563;BME280;14217;50.986;5.826;2024-01-30T19:49:53;102581.88;;;18.71;44.87
26563;BME280;14217;50.986;5.826;2024-01-30T19:54:55;102593.28;;;18.76;44.49
26563;BME280;14217;50.986;5.826;2024-01-30T19:59:57;102588.81;;;18.80;44.38
26563;BME280;14217;50.986;5.826;2024-01-30T20:04:59;102592.41;;;18.76;44.79
26563;BME280;14217;50.986;5.826;2024-01-30T20:10:02;102599.53;;;18.74;44.70
26563;BME280;14217;50.986;5.826;2024-01-30T20:15:05;102613.72;;;18.73;44.78
26563;BME280;14217;50.986;5.826;2024-01-30T20:20:10;102618.09;;;18.75;44.84
26563;BME280;14217;50.986;5.826;2024-01-30T20:25:13;102622.75;;;18.62;48.60
26563;BME280;14217;50.986;5.826;2024-01-30T20:30:20;102624.66;;;18.53;48.04
26563;BME280;14217;50.986;5.826;2024-01-30T20:35:24;102625.50;;;18.55;47.92
26563;BME280;14217;50.986;5.826;2024-01-30T20:40:28;102632.66;;;18.51;47.42
26563;BME280;14217;50.986;5.826;2024-01-30T20:45:30;102638.19;;;18.37;51.39
26563;BME280;14217;50.986;5.826;2024-01-30T20:50:32;102643.41;;;18.43;49.50
26563;BME280;14217;50.986;5.826;2024-01-30T20:55:34;102650.59;;;18.35;49.17
26563;BME280;14217;50.986;5.826;2024-01-30T21:00:37;102656.75;;;18.37;48.35
26563;BME280;14217;50.986;5.826;2024-01-30T21:05:39;102654.97;;;18.38;47.41
26563;BME280;14217;50.986;5.826;2024-01-30T21:10:43;102662.00;;;18.40;47.41
26563;BME280;14217;50.986;5.826;2024-01-30T21:15:45;102673.34;;;18.52;49.43
26563;BME280;14217;50.986;5.826;2024-01-30T21:20:47;102670.72;;;18.48;48.80
26563;BME280;14217;50.986;5.826;2024-01-30T21:25:52;102662.00;;;18.42;48.32
26563;BME280;14217;50.986;5.826;2024-01-30T21:30:54;102666.31;;;18.49;48.04
26563;BME280;14217;50.986;5.826;2024-01-30T21:35:56;102667.69;;;18.73;47.04
26563;BME280;14217;50.986;5.826;2024-01-30T21:41:00;102673.38;;;18.48;50.62
26563;BME280;14217;50.986;5.826;2024-01-30T21:46:02;102676.00;;;18.53;49.29
26563;BME280;14217;50.986;5.826;2024-01-30T21:51:04;102687.31;;;18.66;48.42
26563;BME280;14217;50.986;5.826;2024-01-30T21:56:06;102695.19;;;18.69;48.15
26563;BME280;14217;50.986;5.826;2024-01-30T22:01:08;102703.03;;;18.80;47.72
26563;BME280;14217;50.986;5.826;2024-01-30T22:06:10;102701.22;;;18.83;47.28
26563;BME280;14217;50.986;5.826;2024-01-30T22:11:12;102709.09;;;18.88;47.03
26563;BME280;14217;50.986;5.826;2024-01-30T22:16:15;102702.94;;;18.84;47.00
26563;BME280;14217;50.986;5.826;2024-01-30T22:21:17;102699.31;;;18.90;46.50
26563;BME280;14217;50.986;5.826;2024-01-30T22:26:20;102708.22;;;18.87;46.44
26563;BME280;14217;50.986;5.826;2024-01-30T22:31:22;102718.88;;;18.86;46.26
26563;BME280;14217;50.986;5.826;2024-01-30T22:36:24;102721.50;;;18.87;46.08
26563;BME280;14217;50.986;5.826;2024-01-30T22:41:26;102721.53;;;18.86;46.04
26563;BME280;14217;50.986;5.826;2024-01-30T22:46:28;102715.38;;;18.82;45.97
26563;BME280;14217;50.986;5.826;2024-01-30T22:51:30;102718.00;;;18.85;45.84
26563;BME280;14217;50.986;5.826;2024-01-30T22:56:32;102717.06;;;18.88;45.52
26563;BME280;14217;50.986;5.826;2024-01-30T23:01:34;102725.09;;;18.85;45.64
26563;BME280;14217;50.986;5.826;2024-01-30T23:06:36;102732.16;;;18.86;45.31
26563;BME280;14217;50.986;5.826;2024-01-30T23:11:38;102741.91;;;18.84;45.58
26563;BME280;14217;50.986;5.826;2024-01-30T23:16:40;102748.09;;;18.84;45.33
26563;BME280;14217;50.986;5.826;2024-01-30T23:21:44;102749.88;;;18.85;45.20
26563;BME280;14217;50.986;5.826;2024-01-30T23:26:46;102755.19;;;18.84;45.47
26563;BME280;14217;50.986;5.826;2024-01-30T23:31:49;102749.91;;;18.82;45.45
26563;BME280;14217;50.986;5.826;2024-01-30T23:36:51;102752.59;;;18.78;45.32
26563;BME280;14217;50.986;5.826;2024-01-30T23:41:54;102749.06;;;18.77;45.07
26563;BME280;14217;50.986;5.826;2024-01-30T23:46:56;102747.28;;;18.78;45.31
26563;BME280;14217;50.986;5.826;2024-01-30T23:51:58;102739.34;;;18.79;45.18
26563;BME280;14217;50.986;5.826;2024-01-30T23:57:00;102738.47;;;18.79;44.97
